Time;durP1;ratioP1;P1;durP2;ratioP2;P2;SDS_P1;SDS_P2;PMS_P1;PMS_P2;Temp;Humidity;BMP_temperature;BMP_pressure;BME280_temperature;BME280_humidity;BME280_pressure;Samples;Min_cycle;Max_cycle;Signal;HPM_P1;HPM_P2
2023/07/23 00:02:08;;;;;;;10.40;4.60;;;;;;;22.62;49.26;94488.41;6165423;23;20448;-85
2023/07/23 00:04:34;;;;;;;7.93;4.10;;;;;;;22.64;49.18;94494.94;6189561;23;20064;-84
2023/07/23 00:06:59;;;;;;;8.27;4.28;;;;;;;22.68;48.85;94479.81;6165465;23;20013;-84
2023/07/23 00:09:24;;;;;;;8.63;4.05;;;;;;;22.66;48.96;94486.63;6216547;23;20068;-84
2023/07/23 00:11:51;;;;;;;7.60;3.95;;;;;;;22.74;48.83;94486.44;6215942;23;20001;-84
2023/07/23 00:14:17;;;;;;;10.50;4.32;;;;;;;22.70;49.03;94479.47;6164709;23;20036;-84
2023/07/23 00:16:42;;;;;;;6.85;3.90;;;;;;;22.67;49.26;94483.59;6190068;23;20004;-84
2023/07/23 00:19:08;;;;;;;12.52;4.50;;;;;;;22.80;48.66;94484.31;6189799;23;20000;-85
2023/07/23 00:21:34;;;;;;;11.02;4.13;;;;;;;22.83;48.56;94474.84;6190075;23;19997;-84
2023/07/23 00:23:59;;;;;;;7.38;4.00;;;;;;;22.84;48.32;94473.72;6189314;23;19996;-84
2023/07/23 00:26:24;;;;;;;8.95;4.50;;;;;;;22.87;47.76;94467.69;6165334;23;20008;-84
2023/07/23 00:28:50;;;;;;;11.00;4.13;;;;;;;22.89;47.93;94470.78;6189752;23;20058;-84
2023/07/23 00:31:15;;;;;;;9.15;4.07;;;;;;;22.87;48.10;94470.38;6189826;23;20000;-84
2023/07/23 00:33:41;;;;;;;10.52;4.85;;;;;;;22.70;48.75;94472.25;6189163;23;20004;-84
2023/07/23 00:36:06;;;;;;;8.75;3.88;;;;;;;22.88;47.92;94463.91;6189721;23;20404;-85
2023/07/23 00:38:31;;;;;;;7.60;4.32;;;;;;;22.75;48.49;94457.88;6189715;23;20067;-85
2023/07/23 00:40:57;;;;;;;8.05;4.10;;;;;;;22.54;48.87;94450.84;6216131;23;20004;-84
2023/07/23 00:43:23;;;;;;;9.63;4.28;;;;;;;22.55;48.97;94467.66;6188806;23;20008;-84
2023/07/23 00:45:48;;;;;;;11.68;4.20;;;;;;;22.46;48.91;94460.53;6189681;23;20414;-84
2023/07/23 00:48:14;;;;;;;6.72;4.10;;;;;;;22.49;49.27;94461.78;6216159;23;19997;-84
2023/07/23 00:50:39;;;;;;;7.68;4.15;;;;;;;22.50;49.48;94462.53;6190189;23;20127;-84
2023/07/23 00:53:05;;;;;;;8.45;4.43;;;;;;;22.38;49.83;94458.00;6215435;23;20333;-84
2023/07/23 00:55:30;;;;;;;6.88;3.95;;;;;;;22.30;49.59;94467.72;6189574;23;20004;-85
2023/07/23 00:57:56;;;;;;;9.15;4.55;;;;;;;22.23;49.72;94464.84;6165203;23;20390;-85
2023/07/23 01:00:21;;;;;;;8.63;4.68;;;;;;;22.34;49.31;94465.16;6165122;23;20087;-84
2023/07/23 01:02:47;;;;;;;11.50;4.45;;;;;;;22.45;47.93;94461.66;6189019;23;20402;-84
2023/07/23 01:05:13;;;;;;;7.72;4.68;;;;;;;22.31;49.45;94461.25;6189478;23;20005;-84
2023/07/23 01:07:39;;;;;;;9.02;4.30;;;;;;;22.08;50.11;94464.44;6164802;23;20001;-84
2023/07/23 01:10:05;;;;;;;10.30;4.55;;;;;;;22.21;49.72;94461.75;6189503;23;20004;-84
2023/07/23 01:12:31;;;;;;;10.25;4.53;;;;;;;22.07;49.81;94457.56;6188971;23;20425;-84
2023/07/23 01:14:57;;;;;;;9.15;4.07;;;;;;;21.98;50.36;94464.94;6189412;23;20001;-85
2023/07/23 01:17:23;;;;;;;10.55;4.97;;;;;;;21.83;51.07;94461.06;6189504;23;20504;-84
2023/07/23 01:20:00;;;;;;;8.88;4.47;;;;;;;21.82;51.03;94462.19;6189356;23;19996;-85
2023/07/23 01:22:25;;;;;;;10.18;4.15;;;;;;;21.96;50.43;94467.16;6189395;23;20685;-85
2023/07/23 01:24:51;;;;;;;9.70;4.28;;;;;;;22.07;49.42;94462.13;6189026;23;20000;-84
2023/07/23 01:27:16;;;;;;;7.85;4.45;;;;;;;21.85;50.51;94462.31;6164670;23;20102;-84
2023/07/23 01:29:42;;;;;;;9.13;4.50;;;;;;;21.93;50.05;94465.16;6164642;23;20050;-85
2023/07/23 01:32:07;;;;;;;7.07;4.30;;;;;;;21.80;50.56;94459.09;6189157;23;20010;-84
2023/07/23 01:34:33;;;;;;;11.48;4.68;;;;;;;21.84;50.58;94462.63;6215047;23;20024;-85
2023/07/23 01:36:58;;;;;;;8.55;4.47;;;;;;;21.71;50.44;94462.66;6164636;23;20062;-86
2023/07/23 01:39:23;;;;;;;7.32;4.20;;;;;;;21.53;53.11;94462.09;6164753;23;20081;-86
2023/07/23 01:41:49;;;;;;;8.68;4.75;;;;;;;21.23;53.02;94456.22;6189143;23;19997;-85
2023/07/23 01:44:14;;;;;;;10.18;4.70;;;;;;;21.37;50.67;94462.00;6163581;23;20054;-85
2023/07/23 01:46:40;;;;;;;10.50;4.63;;;;;;;21.42;53.32;94463.66;6188903;23;20373;-85
2023/07/23 01:49:05;;;;;;;10.75;5.13;;;;;;;21.69;49.52;94456.13;6189259;23;20059;-84
2023/07/23 01:51:30;;;;;;;8.48;4.63;;;;;;;21.41;52.13;94457.53;6189027;23;20130;-85
2023/07/23 01:53:56;;;;;;;10.63;4.90;;;;;;;22.11;48.54;94455.00;6163811;23;20004;-84
2023/07/23 01:56:21;;;;;;;12.18;5.03;;;;;;;21.92;49.44;94464.41;6164459;23;20063;-84
2023/07/23 01:58:47;;;;;;;7.65;4.47;;;;;;;21.99;49.24;94453.16;6164439;23;19997;-85
2023/07/23 02:01:12;;;;;;;8.35;4.53;;;;;;;22.38;48.04;94460.69;6188931;23;20034;-85
2023/07/23 02:03:37;;;;;;;9.23;4.53;;;;;;;22.74;46.38;94469.66;6188547;23;20063;-85
2023/07/23 02:06:03;;;;;;;8.05;4.57;;;;;;;22.57;46.97;94463.50;6164035;23;20062;-84
2023/07/23 02:08:31;;;;;;;9.52;4.70;;;;;;;22.16;49.38;94463.53;6164082;23;19993;-85
2023/07/23 02:11:00;;;;;;;8.85;4.65;;;;;;;22.45;46.61;94458.19;6189110;23;20007;-85
2023/07/23 02:13:29;;;;;;;9.32;4.30;;;;;;;22.45;47.05;94460.84;6188086;23;20075;-85
2023/07/23 02:15:55;;;;;;;10.88;4.35;;;;;;;22.56;46.95;94466.53;6164193;23;20012;-85
2023/07/23 02:18:20;;;;;;;11.30;4.35;;;;;;;22.59;46.73;94466.63;6188277;23;20058;-84
2023/07/23 02:20:48;;;;;;;8.45;4.30;;;;;;;22.86;46.16;94458.88;6163520;23;20005;-84
2023/07/23 02:23:15;;;;;;;8.32;4.28;;;;;;;22.57;47.09;94452.06;6163367;23;20000;-85
2023/07/23 02:25:41;;;;;;;11.60;4.72;;;;;;;22.57;46.90;94452.81;6188511;23;19992;-85
2023/07/23 02:28:09;;;;;;;8.93;3.97;;;;;;;22.64;46.69;94454.91;6163764;23;20079;-85
2023/07/23 02:30:34;;;;;;;11.10;4.40;;;;;;;22.52;46.92;94461.09;6188824;23;20004;-85
2023/07/23 02:33:00;;;;;;;11.68;4.57;;;;;;;22.50;46.89;94465.22;6188168;23;20001;-84
2023/07/23 02:35:25;;;;;;;10.90;4.53;;;;;;;22.48;47.17;94464.78;6164957;23;19996;-84
2023/07/23 02:37:50;;;;;;;9.43;4.35;;;;;;;22.43;47.11;94463.88;6165973;23;20008;-84
2023/07/23 02:40:19;;;;;;;8.00;4.35;;;;;;;22.50;47.51;94475.88;6190724;23;19999;-85
2023/07/23 02:42:48;;;;;;;12.55;4.65;;;;;;;22.70;46.54;94474.13;6163481;23;20019;-85
2023/07/23 02:45:13;;;;;;;9.80;4.50;;;;;;;22.51;47.27;94480.91;6165644;23;20009;-85
2023/07/23 02:47:38;;;;;;;9.57;4.72;;;;;;;22.48;47.58;94480.78;6166049;23;20370;-85
2023/07/23 02:50:11;;;;;;;13.98;4.72;;;;;;;22.65;46.83;94483.16;6190211;23;20032;-86
2023/07/23 02:52:36;;;;;;;8.98;4.13;;;;;;;22.55;47.27;94489.75;6190720;23;20079;-85
2023/07/23 02:55:02;;;;;;;8.95;4.55;;;;;;;22.41;47.28;94492.81;6165884;23;20086;-84
2023/07/23 02:57:28;;;;;;;10.40;4.53;;;;;;;22.53;47.15;94492.00;6190361;23;20000;-85
2023/07/23 02:59:53;;;;;;;11.00;4.30;;;;;;;22.78;46.44;94493.78;6217039;23;20015;-85
2023/07/23 03:02:19;;;;;;;10.18;4.72;;;;;;;22.55;47.20;94495.09;6217062;23;20031;-84
2023/07/23 03:04:44;;;;;;;7.15;4.47;;;;;;;22.62;47.02;94485.75;6190219;23;19996;-85
2023/07/23 03:07:10;;;;;;;9.95;4.07;;;;;;;22.43;47.61;94495.91;6190525;23;19997;-85
2023/07/23 03:09:35;;;;;;;10.25;4.43;;;;;;;22.50;47.24;94492.69;6190449;23;20035;-84
2023/07/23 03:12:01;;;;;;;9.73;4.43;;;;;;;22.46;47.22;94478.44;6190365;23;20008;-84
2023/07/23 03:14:26;;;;;;;11.73;4.68;;;;;;;22.49;47.41;94485.81;6216528;23;20014;-85
2023/07/23 03:16:52;;;;;;;8.43;4.63;;;;;;;22.44;47.58;94489.47;6190415;23;20388;-85
2023/07/23 03:19:17;;;;;;;8.07;4.50;;;;;;;22.45;47.81;94493.69;6190157;23;19997;-85
2023/07/23 03:21:42;;;;;;;8.23;4.10;;;;;;;22.46;47.64;94494.47;6165881;23;20001;-84
2023/07/23 03:24:08;;;;;;;11.32;4.32;;;;;;;22.52;47.51;94487.00;6189828;23;20291;-84
2023/07/23 03:26:33;;;;;;;7.50;4.50;;;;;;;22.56;47.12;94490.56;6190503;23;20055;-85
2023/07/23 03:28:59;;;;;;;7.78;4.30;;;;;;;22.43;47.30;94493.25;6166115;23;20004;-85
2023/07/23 03:31:24;;;;;;;9.75;4.53;;;;;;;22.54;47.28;94506.16;6190386;23;20004;-84
2023/07/23 03:33:49;;;;;;;9.05;4.10;;;;;;;22.36;47.76;94501.03;6189661;23;20054;-85
2023/07/23 03:36:15;;;;;;;10.43;4.68;;;;;;;22.25;48.48;94500.75;6165676;23;20005;-85
2023/07/23 03:38:40;;;;;;;11.07;4.72;;;;;;;22.30;48.53;94508.50;6190747;23;19993;-84
2023/07/23 03:41:06;;;;;;;8.50;3.95;;;;;;;22.19;48.60;94499.44;6190300;23;20067;-85
2023/07/23 03:43:31;;;;;;;10.68;4.43;;;;;;;21.98;49.30;94507.63;6189803;23;20005;-84
2023/07/23 03:45:56;;;;;;;11.07;4.18;;;;;;;22.08;48.98;94504.47;6190048;23;20000;-85
2023/07/23 03:48:22;;;;;;;7.78;3.42;;;;;;;22.39;48.58;94508.41;6190457;23;20047;-84
2023/07/23 03:50:47;;;;;;;10.38;4.28;;;;;;;22.24;49.53;94507.22;6217177;23;20032;-84
2023/07/23 03:53:12;;;;;;;10.43;4.43;;;;;;;22.11;49.81;94501.16;6165380;23;20319;-84
2023/07/23 03:55:38;;;;;;;8.68;4.30;;;;;;;22.15;49.76;94501.22;6190077;23;20088;-85
2023/07/23 03:58:03;;;;;;;13.13;4.30;;;;;;;22.09;49.93;94505.25;6165914;23;20079;-84
2023/07/23 04:00:29;;;;;;;11.20;4.03;;;;;;;21.96;50.65;94507.19;6190075;23;20001;-85
2023/07/23 04:02:54;;;;;;;15.55;4.47;;;;;;;21.72;51.92;94506.09;6189441;23;20402;-84
2023/07/23 04:05:19;;;;;;;8.30;4.10;;;;;;;21.73;50.89;94497.78;6190034;23;20437;-84
2023/07/23 04:07:45;;;;;;;12.38;4.10;;;;;;;21.78;50.95;94504.75;6165023;23;20004;-84
2023/07/23 04:10:10;;;;;;;8.60;3.80;;;;;;;21.70;51.35;94498.41;6189968;23;20300;-85
2023/07/23 04:12:36;;;;;;;7.13;3.70;;;;;;;21.41;55.66;94502.09;6189405;23;20003;-84
2023/07/23 04:15:02;;;;;;;10.15;4.50;;;;;;;21.34;52.72;94499.97;6165394;23;20083;-84
2023/07/23 04:17:28;;;;;;;10.80;4.10;;;;;;;21.22;53.81;94502.63;6189590;23;20001;-85
2023/07/23 04:19:53;;;;;;;9.95;4.32;;;;;;;21.16;55.80;94499.41;6189070;23;20339;-84
2023/07/23 04:22:21;;;;;;;7.93;4.45;;;;;;;21.02;55.52;94497.06;6216276;23;20068;-84
2023/07/23 04:24:46;;;;;;;8.52;4.07;;;;;;;21.00;55.96;94494.72;6189806;23;19996;-85
2023/07/23 04:27:12;;;;;;;7.50;3.95;;;;;;;20.72;62.54;94503.28;6164402;23;20090;-85
2023/07/23 04:29:37;;;;;;;8.30;4.10;;;;;;;20.87;59.93;94501.13;6189934;23;20004;-85
2023/07/23 04:32:03;;;;;;;7.18;3.97;;;;;;;20.87;57.22;94504.59;6189499;23;20091;-85
2023/07/23 04:34:28;;;;;;;9.73;4.07;;;;;;;20.87;60.70;94506.44;6188949;23;20004;-84
2023/07/23 04:36:53;;;;;;;6.55;3.85;;;;;;;21.02;59.75;94513.81;6164629;23;20062;-85
2023/07/23 04:39:22;;;;;;;10.98;4.43;;;;;;;20.72;62.13;94516.59;6164640;23;20461;-84
2023/07/23 04:41:47;;;;;;;9.35;4.28;;;;;;;20.74;62.29;94508.28;6165481;23;20011;-86
2023/07/23 04:44:13;;;;;;;8.95;4.65;;;;;;;20.80;63.07;94514.94;6164192;23;20000;-85
2023/07/23 04:46:38;;;;;;;6.50;3.35;;;;;;;20.89;65.17;94506.91;6189278;23;19997;-85
2023/07/23 04:49:04;;;;;;;7.78;4.10;;;;;;;21.07;58.24;94509.38;6164873;23;20222;-84
2023/07/23 04:51:29;;;;;;;7.07;4.00;;;;;;;21.26;56.02;94498.97;6216099;23;20088;-84
2023/07/23 04:53:55;;;;;;;8.40;4.22;;;;;;;21.42;55.77;94504.41;6189085;23;20009;-84
2023/07/23 04:56:22;;;;;;;7.88;4.25;;;;;;;21.40;61.87;94506.63;6189900;23;19992;-84
2023/07/23 04:58:48;;;;;;;6.82;3.90;;;;;;;21.66;54.39;94510.09;6164892;23;20476;-84
2023/07/23 05:01:14;;;;;;;8.15;4.30;;;;;;;21.81;54.41;94514.75;6164906;23;20000;-87
2023/07/23 05:03:40;;;;;;;7.38;4.05;;;;;;;21.83;56.31;94514.41;6164564;23;20424;-87
2023/07/23 05:06:06;;;;;;;9.88;4.80;;;;;;;21.99;53.15;94514.50;6188338;23;20027;-85
2023/07/23 05:08:32;;;;;;;8.20;4.40;;;;;;;21.94;54.93;94517.38;6189409;23;20000;-85
2023/07/23 05:11:02;;;;;;;9.15;4.50;;;;;;;22.02;53.47;94508.50;6189370;23;20054;-86
2023/07/23 05:13:31;;;;;;;9.57;4.90;;;;;;;22.17;52.49;94515.78;6164362;23;20040;-87
2023/07/23 05:16:00;;;;;;;9.38;4.35;;;;;;;22.31;50.80;94511.97;6189982;23;20035;-86
2023/07/23 05:18:26;;;;;;;7.68;4.68;;;;;;;22.12;53.78;94513.38;6189833;23;20001;-86
2023/07/23 05:20:51;;;;;;;9.77;5.28;;;;;;;22.15;54.49;94517.22;6164786;23;20007;-85
2023/07/23 05:23:25;;;;;;;12.85;5.25;;;;;;;22.13;53.05;94514.91;6188904;23;20003;-84
2023/07/23 05:25:50;;;;;;;8.10;3.90;;;;;;;22.27;53.60;94514.53;6166292;23;20067;-84
2023/07/23 05:28:16;;;;;;;8.30;4.57;;;;;;;22.31;54.39;94526.09;6164761;23;20091;-85
2023/07/23 05:30:41;;;;;;;13.40;5.13;;;;;;;22.37;53.77;94518.59;6189794;23;20007;-84
2023/07/23 05:33:07;;;;;;;11.95;4.80;;;;;;;22.22;53.90;94532.66;6188942;23;20004;-84
2023/07/23 05:35:32;;;;;;;7.55;4.03;;;;;;;22.42;56.90;94526.41;6189426;23;20083;-85
2023/07/23 05:37:58;;;;;;;8.05;4.45;;;;;;;22.42;56.92;94529.06;6189200;23;20071;-84
2023/07/23 05:40:25;;;;;;;10.32;5.30;;;;;;;22.45;55.62;94527.59;6164601;23;20398;-85
2023/07/23 05:42:54;;;;;;;9.75;4.80;;;;;;;22.45;56.88;94532.94;6189073;23;20016;-86
2023/07/23 05:45:19;;;;;;;9.32;4.80;;;;;;;22.61;54.87;94533.03;6215710;23;20365;-86
2023/07/23 05:47:45;;;;;;;9.25;4.70;;;;;;;22.22;58.79;94538.78;6188902;23;20008;-86
2023/07/23 05:50:10;;;;;;;8.77;4.85;;;;;;;22.27;68.92;94535.13;6189399;23;20003;-85
2023/07/23 05:52:36;;;;;;;10.43;4.75;;;;;;;22.67;71.24;94546.91;6187937;23;20035;-87
2023/07/23 05:55:01;;;;;;;10.55;5.20;;;;;;;22.66;74.90;94537.34;6189348;23;19992;-86
2023/07/23 05:57:26;;;;;;;10.30;5.30;;;;;;;22.83;64.45;94539.72;6189359;23;20004;-86
2023/07/23 05:59:52;;;;;;;9.95;4.68;;;;;;;22.95;63.96;94536.19;6215633;23;20047;-86
2023/07/23 06:02:20;;;;;;;9.48;5.07;;;;;;;22.98;63.98;94540.88;6189164;23;20005;-87
2023/07/23 06:04:47;;;;;;;12.23;4.90;;;;;;;22.95;64.45;94546.88;6188680;23;20018;-86
2023/07/23 06:07:13;;;;;;;11.45;5.97;;;;;;;22.97;57.06;94543.88;6189575;23;20081;-85
2023/07/23 06:09:38;;;;;;;11.25;5.32;;;;;;;23.00;61.97;94551.19;6189029;23;20054;-85
2023/07/23 06:12:04;;;;;;;13.30;5.95;;;;;;;22.78;65.15;94547.19;6164985;23;20100;-85
2023/07/23 06:14:29;;;;;;;15.65;6.45;;;;;;;22.73;59.48;94540.97;6215231;23;20005;-85
2023/07/23 06:16:55;;;;;;;14.48;6.97;;;;;;;23.01;58.00;94548.19;6164520;23;20091;-85
2023/07/23 06:19:20;;;;;;;11.50;5.57;;;;;;;23.27;61.12;94552.31;6189016;23;20050;-86
2023/07/23 06:21:46;;;;;;;11.90;5.65;;;;;;;23.52;65.43;94551.34;6189260;23;20012;-85
2023/07/23 06:24:11;;;;;;;13.50;5.72;;;;;;;23.68;74.75;94554.03;6163810;23;19999;-85
2023/07/23 06:26:37;;;;;;;12.57;5.70;;;;;;;23.73;69.93;94557.19;6215384;23;20299;-85
2023/07/23 06:29:02;;;;;;;11.23;6.18;;;;;;;24.00;59.20;94557.41;6214795;23;19996;-85
2023/07/23 06:31:30;;;;;;;11.07;5.68;;;;;;;24.10;57.59;94561.50;6188777;23;19997;-87
2023/07/23 06:34:23;;;;;;;;;;;;;;;;;;;;;
2023/07/23 06:36:51;;;;;;;11.30;5.50;;;;;;;24.28;76.34;94574.47;6191311;23;20079;-87
2023/07/23 06:39:21;;;;;;;11.63;5.80;;;;;;;23.71;78.83;94564.78;6189528;23;20318;-86
2023/07/23 06:41:47;;;;;;;8.93;5.15;;;;;;;23.62;93.37;94569.56;6215769;23;20011;-85
2023/07/23 06:44:12;;;;;;;11.35;5.97;;;;;;;23.13;100.00;94571.38;6188506;23;20012;-86
2023/07/23 06:46:37;;;;;;;11.32;6.05;;;;;;;23.12;100.00;94558.38;6159351;23;20004;-87
2023/07/23 06:49:08;;;;;;;11.30;6.15;;;;;;;23.11;100.00;94559.50;6163779;23;20008;-88
2023/07/23 06:51:40;;;;;;;9.98;5.13;;;;;;;23.52;100.00;94562.06;6164777;23;20001;-86
2023/07/23 06:54:06;;;;;;;8.63;4.78;;;;;;;23.61;95.85;94554.63;6188558;23;20001;-87
2023/07/23 06:56:31;;;;;;;12.77;6.43;;;;;;;23.08;100.00;94574.31;6215845;23;20028;-87
2023/07/23 06:58:57;;;;;;;11.75;5.80;;;;;;;23.27;100.00;94570.22;6164326;23;20087;-86
2023/07/23 07:01:23;;;;;;;9.30;4.93;;;;;;;23.06;100.00;94581.13;6189094;23;20004;-88
2023/07/23 07:03:48;;;;;;;11.80;5.47;;;;;;;23.48;100.00;94577.25;6163934;23;20004;-87
2023/07/23 07:06:16;;;;;;;12.38;6.13;;;;;;;23.29;100.00;94571.44;6164638;23;20012;-87
2023/07/23 07:08:43;;;;;;;15.10;5.50;;;;;;;23.22;100.00;94575.81;6189303;23;20047;-87
2023/07/23 07:11:10;;;;;;;14.98;5.50;;;;;;;23.46;100.00;94579.50;6164610;23;20000;-86
2023/07/23 07:13:36;;;;;;;12.90;5.32;;;;;;;23.64;100.00;94580.69;6163728;23;20008;-86
2023/07/23 07:16:01;;;;;;;11.18;5.28;;;;;;;23.90;79.72;94581.25;6163713;23;20011;-88
2023/07/23 07:18:27;;;;;;;8.75;4.90;;;;;;;24.11;83.61;94587.13;6189007;23;19993;-86
2023/07/23 07:20:59;;;;;;;10.27;4.63;;;;;;;24.32;84.29;94586.03;6188725;23;20031;-86
2023/07/23 07:23:36;;;;;;;10.02;4.80;;;;;;;24.62;69.82;94590.09;6190084;23;20457;-86
2023/07/23 07:26:01;;;;;;;12.55;5.32;;;;;;;24.90;69.79;94597.16;6167114;23;20016;-87
2023/07/23 07:28:29;;;;;;;7.93;5.00;;;;;;;24.56;76.94;94586.91;6216797;23;20001;-86
2023/07/23 07:30:58;;;;;;;8.15;4.80;;;;;;;24.80;83.41;94585.09;6165488;23;20201;-87
2023/07/23 07:33:24;;;;;;;11.20;4.97;;;;;;;24.69;84.35;94591.00;6189945;23;20024;-86
2023/07/23 07:35:54;;;;;;;11.20;5.97;;;;;;;24.99;66.49;94590.44;6165826;23;20059;-86
2023/07/23 07:38:19;;;;;;;13.52;6.00;;;;;;;24.81;67.40;94592.78;6190699;23;20005;-85
2023/07/23 07:40:48;;;;;;;10.40;5.63;;;;;;;25.15;64.58;94597.63;6217070;23;20027;-86
2023/07/23 07:43:13;;;;;;;17.75;5.97;;;;;;;25.23;63.59;94599.28;6190369;23;20000;-85
2023/07/23 07:45:38;;;;;;;11.07;5.85;;;;;;;25.42;71.25;94603.06;6191006;23;20001;-86
2023/07/23 07:48:04;;;;;;;11.48;5.63;;;;;;;25.72;61.90;94594.41;6190860;23;20385;-86
2023/07/23 07:50:30;;;;;;;11.00;6.30;;;;;;;25.60;65.13;94589.22;6166136;23;20087;-85
2023/07/23 07:52:55;;;;;;;10.35;5.90;;;;;;;25.47;68.05;94592.03;6190301;23;20019;-86
2023/07/23 07:55:21;;;;;;;14.77;7.00;;;;;;;25.47;56.13;94589.34;6190629;23;20024;-86
2023/07/23 07:57:46;;;;;;;14.13;6.95;;;;;;;25.36;58.86;94596.44;6190948;23;20000;-86
2023/07/23 08:00:12;;;;;;;12.55;7.00;;;;;;;25.26;69.72;94603.16;6190706;23;20001;-86
2023/07/23 08:02:39;;;;;;;13.40;7.00;;;;;;;25.29;65.36;94597.09;6216650;23;20004;-86
2023/07/23 08:05:08;;;;;;;12.52;7.10;;;;;;;25.53;61.61;94596.00;6217768;23;20072;-85
2023/07/23 08:07:34;;;;;;;13.55;7.05;;;;;;;25.40;61.77;94597.28;6217148;23;20027;-86
2023/07/23 08:10:00;;;;;;;14.77;7.43;;;;;;;25.67;66.07;94589.31;6190316;23;20042;-86
2023/07/23 08:12:26;;;;;;;14.13;7.38;;;;;;;25.58;68.59;94602.97;6165904;23;20028;-85
2023/07/23 08:14:52;;;;;;;14.20;7.35;;;;;;;26.08;69.71;94591.47;6190165;23;20001;-86
2023/07/23 08:17:24;;;;;;;17.75;7.60;;;;;;;26.06;62.30;94581.09;6160207;23;20012;-87
2023/07/23 08:19:50;;;;;;;13.65;7.70;;;;;;;26.25;68.67;94590.97;6166134;23;20095;-88
2023/07/23 08:22:15;;;;;;;13.57;7.63;;;;;;;26.15;71.70;94596.94;6165645;23;20008;-92
2023/07/23 08:24:41;;;;;;;15.10;7.10;;;;;;;25.95;62.20;94586.31;6165419;23;20000;-87
2023/07/23 08:27:09;;;;;;;17.60;7.60;;;;;;;26.28;56.83;94599.44;6166611;23;19997;-89
2023/07/23 08:29:37;;;;;;;14.40;7.70;;;;;;;26.15;63.93;94593.50;6191229;23;20374;-89
2023/07/23 08:32:02;;;;;;;14.35;7.47;;;;;;;26.42;64.26;94601.56;6165784;23;20009;-88
2023/07/23 08:34:30;;;;;;;14.40;7.07;;;;;;;26.37;72.94;94606.09;6190002;23;20007;-87
2023/07/23 08:37:08;;;;;;;14.35;6.60;;;;;;;26.59;66.53;94605.59;6166318;23;20005;-90
2023/07/23 08:39:33;;;;;;;14.38;6.97;;;;;;;26.53;75.95;94595.16;6169054;23;20003;-88
2023/07/23 08:42:17;;;;;;;17.35;7.00;;;;;;;26.50;65.30;94603.97;6165670;23;20005;-86
2023/07/23 08:45:05;;;;;;;12.40;6.57;;;;;;;26.58;72.68;94607.50;6189737;23;19996;-89
2023/07/23 08:47:37;;;;;;;14.05;6.40;;;;;;;26.19;80.43;94608.53;6189941;23;20087;-87
2023/07/23 08:50:03;;;;;;;12.63;7.03;;;;;;;26.37;85.87;94613.38;6190975;23;20001;-89
2023/07/23 08:52:31;;;;;;;13.90;6.55;;;;;;;26.71;77.95;94615.34;6166012;23;20055;-87
2023/07/23 08:54:57;;;;;;;10.20;5.82;;;;;;;26.81;74.35;94620.06;6165419;23;20007;-87
2023/07/23 08:57:22;;;;;;;14.68;6.47;;;;;;;26.65;70.40;94618.34;6165607;23;20295;-88
2023/07/23 08:59:50;;;;;;;14.23;7.25;;;;;;;26.53;68.45;94622.03;6166141;23;20007;-88
2023/07/23 09:02:18;;;;;;;15.88;6.63;;;;;;;26.85;68.54;94620.91;6165930;23;20051;-90
2023/07/23 09:04:43;;;;;;;16.33;7.25;;;;;;;26.32;75.14;94617.16;6165902;23;20354;-88
2023/07/23 09:07:18;;;;;;;11.98;6.68;;;;;;;26.63;67.44;94623.31;6166076;23;20000;-92
2023/07/23 09:09:47;;;;;;;14.55;6.70;;;;;;;26.87;84.17;94617.84;6166270;23;19997;-88
2023/07/23 09:12:13;;;;;;;16.40;7.35;;;;;;;26.62;81.18;94623.69;6165936;23;20026;-89
2023/07/23 09:14:52;;;;;;;;;;;;;;;;;;;;;
2023/07/23 09:17:19;;;;;;;15.40;7.40;;;;;;;26.67;76.56;94620.66;6192237;23;20119;-87
2023/07/23 09:19:45;;;;;;;17.13;7.45;;;;;;;26.37;75.07;94627.56;6166105;23;20001;-89
2023/07/23 09:22:10;;;;;;;25.30;8.07;;;;;;;26.21;74.24;94625.06;6165884;23;20004;-89
2023/07/23 09:24:36;;;;;;;17.50;8.43;;;;;;;26.61;79.39;94627.50;6165682;23;19993;-88
2023/07/23 09:27:02;;;;;;;16.02;8.20;;;;;;;26.36;84.00;94622.56;6166375;23;20028;-90
2023/07/23 09:29:35;;;;;;;25.15;9.55;;;;;;;26.81;67.25;94628.13;6190746;23;20083;-91
2023/07/23 09:32:01;;;;;;;19.88;9.20;;;;;;;26.63;63.82;94628.69;6190144;23;20011;-89
2023/07/23 09:34:26;;;;;;;18.58;8.15;;;;;;;27.03;66.39;94629.19;6189848;23;20032;-90
2023/07/23 09:36:53;;;;;;;18.35;8.65;;;;;;;27.23;72.92;94624.41;6166042;23;20087;-91
2023/07/23 09:39:19;;;;;;;23.15;9.18;;;;;;;26.80;63.59;94626.56;6165696;23;19997;-91
2023/07/23 09:41:45;;;;;;;18.13;8.73;;;;;;;27.23;67.75;94629.78;6165696;23;20062;-91
2023/07/23 09:44:12;;;;;;;20.13;9.18;;;;;;;27.49;74.29;94630.03;6165320;23;20031;-91
2023/07/23 09:46:39;;;;;;;20.17;9.35;;;;;;;27.41;64.79;94621.13;6165583;23;20004;-89
2023/07/23 09:49:04;;;;;;;20.02;9.15;;;;;;;27.35;71.35;94636.84;6165252;23;20015;-93
2023/07/23 09:51:34;;;;;;;21.10;9.15;;;;;;;27.79;71.51;94621.09;6165677;23;20005;-93
2023/07/23 09:54:00;;;;;;;16.55;8.70;;;;;;;27.63;69.33;94618.66;6189425;23;20012;-92
2023/07/23 09:56:27;;;;;;;16.45;8.60;;;;;;;27.89;65.02;94619.63;6165617;23;20005;-90
2023/07/23 09:58:53;;;;;;;23.38;9.77;;;;;;;27.58;65.97;94617.06;6189955;23;20481;-90
2023/07/23 10:01:20;;;;;;;32.45;9.88;;;;;;;27.64;69.79;94626.38;6165236;23;19997;-89
2023/07/23 10:03:47;;;;;;;28.73;10.45;;;;;;;27.83;71.28;94624.59;6189712;23;20414;-88
2023/07/23 10:06:15;;;;;;;24.20;10.30;;;;;;;27.55;74.92;94614.38;6165693;23;20006;-92
2023/07/23 10:08:42;;;;;;;25.38;10.07;;;;;;;28.02;63.63;94620.09;6167325;23;20004;-91
2023/07/23 10:11:09;;;;;;;18.60;10.52;;;;;;;27.55;60.84;94622.44;6191548;23;20075;-89
2023/07/23 10:13:36;;;;;;;21.77;10.18;;;;;;;27.80;67.76;94615.34;6190206;23;20027;-90
2023/07/23 10:16:05;;;;;;;20.55;11.27;;;;;;;27.90;69.58;94618.50;6165871;23;20124;-91
2023/07/23 10:18:32;;;;;;;21.52;11.13;;;;;;;27.94;71.80;94617.38;6189840;23;20100;-92
2023/07/23 10:21:00;;;;;;;19.98;11.02;;;;;;;28.26;61.19;94610.66;6165619;23;20059;-90
2023/07/23 10:23:27;;;;;;;22.50;12.40;;;;;;;28.20;63.50;94615.66;6189666;23;20015;-92
2023/07/23 10:26:25;;;;;;;18.67;11.00;;;;;;;27.99;66.01;94613.56;6167331;23;20036;-91
2023/07/23 10:29:15;;;;;;;29.25;15.25;;;;;;;28.14;58.30;94603.66;6166517;23;20068;-87
2023/07/23 10:31:42;;;;;;;32.10;17.15;;;;;;;28.21;61.02;94608.34;6190664;23;20004;-90
2023/07/23 10:34:33;;;;;;;;;;;;;;;;;;;;;
2023/07/23 10:37:17;;;;;;;34.47;19.13;;;;;;;27.80;51.65;94618.03;6216416;23;20164;-91
2023/07/23 10:39:48;;;;;;;36.40;18.80;;;;;;;27.41;46.51;94609.59;6189607;23;19996;-89
2023/07/23 10:42:41;;;;;;;34.90;18.45;;;;;;;27.55;45.34;94607.06;6189547;23;20007;-90
2023/07/23 10:45:29;;;;;;;32.70;16.88;;;;;;;28.11;58.95;94611.69;6177093;23;20004;-90
2023/07/23 10:48:00;;;;;;;36.35;17.70;;;;;;;28.19;51.06;94606.03;6165129;23;20009;-90
2023/07/23 10:50:29;;;;;;;34.35;18.42;;;;;;;28.17;49.07;94612.94;6164512;23;20028;-89
2023/07/23 10:53:05;;;;;;;33.80;18.40;;;;;;;28.77;47.08;94617.09;6188504;23;20007;-88
2023/07/23 10:55:50;;;;;;;37.00;17.67;;;;;;;28.81;46.79;94614.44;6165048;23;20004;-91
2023/07/23 10:58:20;;;;;;;34.70;18.63;;;;;;;28.42;46.87;94606.94;6167530;23;20406;-90
2023/07/23 11:00:47;;;;;;;32.60;17.95;;;;;;;28.12;44.73;94597.09;6166663;23;20008;-89
2023/07/23 11:03:14;;;;;;;36.80;18.73;;;;;;;28.68;46.16;94610.50;6166309;23;20095;-90
2023/07/23 11:05:40;;;;;;;37.70;19.60;;;;;;;28.49;45.27;94609.66;6167012;23;20000;-91
2023/07/23 11:08:19;;;;;;;32.33;18.15;;;;;;;28.68;42.39;94610.50;6163192;23;20433;-91
2023/07/23 11:11:07;;;;;;;;;;;;;;;;;;;;;
2023/07/23 11:13:38;;;;;;;33.70;17.95;;;;;;;28.39;43.07;94591.50;6217034;23;20084;-90
2023/07/23 11:16:07;;;;;;;48.70;24.95;;;;;;;29.00;47.96;94597.16;6167163;23;20402;-92
2023/07/23 11:18:38;;;;;;;35.10;18.83;;;;;;;29.10;47.53;94592.94;6167399;23;20004;-92
2023/07/23 11:30:58;;;;;;;35.95;18.33;;;;;;;28.25;44.28;94589.50;6169886;23;20008;-90
2023/07/23 11:37:21;;;;;;;35.15;18.00;;;;;;;29.03;44.48;94598.34;6213645;23;20001;-90
2023/07/23 11:43:37;;;;;;;33.85;18.10;;;;;;;28.67;43.94;94596.25;6173564;23;20321;-88
2023/07/23 11:46:03;;;;;;;34.20;18.48;;;;;;;29.05;41.53;94588.72;6190893;23;20612;-92
2023/07/23 11:49:26;;;;;;;;;;;;;;;;;;;;;
2023/07/23 11:51:43;;;;;;;31.55;17.67;;;;;;;29.62;46.07;94581.09;6185731;23;20090;-90
2023/07/23 11:54:28;;;;;;;34.35;17.83;;;;;;;28.99;44.36;94589.47;6165763;23;20059;-89